Time;durP1;ratioP1;P1;durP2;ratioP2;P2;SDS_P1;SDS_P2;PMS_P1;PMS_P2;Temp;Humidity;BMP_temperature;BMP_pressure;BME280_temperature;BME280_humidity;BME280_pressure;Samples;Min_cycle;Max_cycle;Signal;HPM_P1;HPM_P2
2023/07/21 00:02:26;;;;;;;1.10;0.80;;;16.50;99.90;;;;;;5026561;28;36990;-75
2023/07/21 00:04:53;;;;;;;1.08;0.85;;;16.50;99.90;;;;;;5026878;28;37234;-76
2023/07/21 00:07:19;;;;;;;0.70;0.68;;;16.40;99.90;;;;;;5028088;28;37151;-75
2023/07/21 00:09:45;;;;;;;2.28;1.00;;;16.40;99.90;;;;;;5028035;28;38419;-75
2023/07/21 00:12:11;;;;;;;1.08;0.63;;;16.40;99.90;;;;;;5028427;28;37860;-76
2023/07/21 00:14:37;;;;;;;1.35;1.13;;;16.40;99.90;;;;;;5027811;28;37230;-76
2023/07/21 00:17:05;;;;;;;2.17;1.00;;;16.40;99.90;;;;;;5027561;28;38695;-76
2023/07/21 00:19:31;;;;;;;1.98;1.00;;;16.30;99.90;;;;;;5031756;28;40302;-76
2023/07/21 00:21:57;;;;;;;1.20;0.82;;;16.30;99.90;;;;;;5033253;28;37742;-77
2023/07/21 00:24:24;;;;;;;2.10;0.93;;;16.30;99.90;;;;;;5027238;28;36794;-75
2023/07/21 00:26:52;;;;;;;1.73;1.00;;;16.20;99.90;;;;;;5027727;28;36243;-77
2023/07/21 00:29:19;;;;;;;0.80;0.80;;;16.20;99.90;;;;;;5028345;28;39761;-77
2023/07/21 00:31:49;;;;;;;2.20;1.25;;;16.10;99.90;;;;;;5027365;28;38079;-77
2023/07/21 00:34:15;;;;;;;1.42;1.30;;;16.10;99.90;;;;;;5027804;28;38186;-77
2023/07/21 00:36:41;;;;;;;1.10;1.00;;;16.10;99.90;;;;;;5037170;28;37758;-77
2023/07/21 00:39:08;;;;;;;1.63;1.10;;;16.00;99.90;;;;;;5029518;28;38549;-77
2023/07/21 00:41:34;;;;;;;1.35;1.17;;;16.00;99.90;;;;;;5028790;28;39241;-76
2023/07/21 00:44:01;;;;;;;1.17;1.00;;;16.00;99.90;;;;;;5038127;28;37361;-76
2023/07/21 00:46:30;;;;;;;1.58;0.95;;;16.00;99.90;;;;;;5028727;28;46930;-76
2023/07/21 00:48:56;;;;;;;1.15;1.00;;;15.90;99.90;;;;;;5027377;28;37942;-77
2023/07/21 00:51:22;;;;;;;3.35;1.10;;;15.90;99.90;;;;;;5026731;28;37830;-76
2023/07/21 00:53:50;;;;;;;0.80;0.80;;;15.80;99.90;;;;;;5034520;28;37994;-76
2023/07/21 00:56:16;;;;;;;1.95;1.10;;;15.70;99.90;;;;;;5027430;28;36753;-76
2023/07/21 00:58:43;;;;;;;1.77;1.08;;;15.70;99.90;;;;;;5027717;28;37975;-77
2023/07/21 01:03:45;;;;;;;1.10;0.93;;;15.60;99.90;;;;;;4339831;22;19931;-81
2023/07/21 01:06:12;;;;;;;1.98;1.30;;;15.60;99.90;;;;;;5038572;28;36193;-81
2023/07/21 01:08:38;;;;;;;2.60;1.10;;;15.50;99.90;;;;;;5037825;28;37763;-81
2023/07/21 01:11:06;;;;;;;1.25;1.15;;;15.40;99.90;;;;;;5057355;28;37170;-81
2023/07/21 01:13:32;;;;;;;1.38;1.17;;;15.40;99.90;;;;;;5030850;28;38367;-81
2023/07/21 01:16:00;;;;;;;1.15;1.05;;;15.30;99.90;;;;;;5045543;28;38064;-81
2023/07/21 01:18:29;;;;;;;1.90;1.30;;;15.30;99.90;;;;;;5038179;28;37969;-81
2023/07/21 01:20:57;;;;;;;1.20;1.02;;;15.20;99.90;;;;;;5031041;28;37551;-81
2023/07/21 01:23:48;;;;;;;1.55;1.45;;;15.10;99.90;;;;;;5030666;28;37279;-81
2023/07/21 01:26:16;;;;;;;1.63;1.30;;;15.10;99.90;;;;;;5026432;28;37417;-80
2023/07/21 01:28:44;;;;;;;2.03;1.33;;;15.00;99.90;;;;;;5032845;28;39109;-82
2023/07/21 01:31:11;;;;;;;1.60;1.50;;;14.90;99.90;;;;;;5027574;28;38353;-81
2023/07/21 01:33:37;;;;;;;1.52;1.42;;;14.90;99.90;;;;;;5028787;28;38104;-81
2023/07/21 01:36:05;;;;;;;1.98;1.35;;;14.90;99.90;;;;;;5041639;28;35914;-81
2023/07/21 01:38:33;;;;;;;1.33;1.23;;;14.80;99.90;;;;;;5021997;28;37927;-81
2023/07/21 01:40:59;;;;;;;1.30;1.20;;;14.80;99.90;;;;;;5030396;28;39057;-81
2023/07/21 01:43:26;;;;;;;2.67;1.60;;;14.80;99.90;;;;;;5029497;28;38039;-81
2023/07/21 01:45:52;;;;;;;1.45;1.20;;;14.80;99.90;;;;;;5030829;28;36176;-81
2023/07/21 01:48:18;;;;;;;1.80;1.50;;;14.70;99.90;;;;;;5049071;28;39032;-81
2023/07/21 01:50:46;;;;;;;3.10;1.67;;;14.70;99.90;;;;;;5026348;28;38192;-81
2023/07/21 01:53:17;;;;;;;2.50;1.25;;;14.70;99.90;;;;;;5024998;28;38875;-81
2023/07/21 01:56:24;;;;;;;3.85;1.90;;;14.70;99.90;;;;;;5039709;28;38888;-82
2023/07/21 01:58:52;;;;;;;1.73;1.45;;;14.70;99.90;;;;;;5020446;28;47049;-81
2023/07/21 02:01:20;;;;;;;1.65;1.33;;;14.70;99.90;;;;;;5059970;28;38904;-81
2023/07/21 02:03:47;;;;;;;1.77;1.67;;;14.60;99.90;;;;;;5026340;28;38417;-81
2023/07/21 02:06:14;;;;;;;2.10;1.70;;;14.60;99.90;;;;;;5028685;28;36413;-81
2023/07/21 02:08:40;;;;;;;2.85;1.30;;;14.50;99.90;;;;;;5051256;28;39184;-81
2023/07/21 02:11:06;;;;;;;1.48;1.38;;;14.50;99.90;;;;;;5051823;28;37546;-81
2023/07/21 02:13:33;;;;;;;1.85;1.40;;;14.50;99.90;;;;;;5043035;28;37841;-82
2023/07/21 02:15:59;;;;;;;2.17;1.50;;;14.40;99.90;;;;;;5027901;28;37413;-81
2023/07/21 02:18:25;;;;;;;2.00;1.80;;;14.40;99.90;;;;;;5050915;28;39073;-81
2023/07/21 02:20:51;;;;;;;2.90;1.83;;;14.40;99.90;;;;;;5028190;28;38022;-81
2023/07/21 02:23:17;;;;;;;1.88;1.35;;;14.40;99.90;;;;;;5037782;28;38489;-81
2023/07/21 02:25:44;;;;;;;2.35;1.10;;;14.40;99.90;;;;;;5048340;28;36104;-81
2023/07/21 02:28:10;;;;;;;1.85;1.70;;;14.40;99.90;;;;;;5036844;28;38438;-81
2023/07/21 02:30:36;;;;;;;1.92;1.50;;;14.30;99.90;;;;;;5050577;28;38320;-81
2023/07/21 02:33:02;;;;;;;2.10;1.50;;;14.30;99.90;;;;;;5039894;28;37606;-80
2023/07/21 02:35:29;;;;;;;1.75;1.50;;;14.30;99.90;;;;;;5027738;28;36739;-81
2023/07/21 02:37:57;;;;;;;2.33;1.73;;;14.30;99.90;;;;;;5020531;28;39816;-82
2023/07/21 02:40:23;;;;;;;1.33;1.23;;;14.40;99.90;;;;;;5043419;28;38626;-82
2023/07/21 02:42:49;;;;;;;1.42;1.33;;;14.40;99.90;;;;;;5015919;28;37093;-82
2023/07/21 02:45:15;;;;;;;1.92;1.75;;;14.40;99.90;;;;;;5021216;28;38164;-81
2023/07/21 02:47:41;;;;;;;1.52;1.38;;;14.40;99.90;;;;;;5027004;28;38996;-82
2023/07/21 02:50:10;;;;;;;1.67;1.40;;;14.30;99.90;;;;;;5028483;28;38038;-81
2023/07/21 02:52:38;;;;;;;1.60;1.50;;;14.40;99.90;;;;;;5023807;28;38944;-81
2023/07/21 02:55:06;;;;;;;2.33;1.70;;;14.40;99.90;;;;;;5028798;28;36396;-80
2023/07/21 02:57:33;;;;;;;1.77;1.67;;;14.40;99.90;;;;;;5025292;28;37739;-82
2023/07/21 03:00:03;;;;;;;2.10;1.27;;;14.40;99.90;;;;;;5033429;28;38342;-81
2023/07/21 03:02:30;;;;;;;3.00;1.70;;;14.30;99.90;;;;;;5022370;28;37419;-81
2023/07/21 03:04:57;;;;;;;3.17;1.92;;;14.40;99.90;;;;;;5037659;28;36510;-82
2023/07/21 03:07:23;;;;;;;2.22;1.88;;;14.40;99.90;;;;;;5013700;28;38153;-82
2023/07/21 03:09:49;;;;;;;1.88;1.67;;;14.40;99.90;;;;;;5025649;28;38239;-82
2023/07/21 03:12:15;;;;;;;1.80;1.70;;;14.40;99.90;;;;;;5023240;28;38493;-81
2023/07/21 03:14:41;;;;;;;2.30;1.52;;;14.40;99.90;;;;;;5044049;28;36269;-81
2023/07/21 03:17:07;;;;;;;2.30;1.88;;;14.40;99.90;;;;;;5017516;28;38662;-81
2023/07/21 03:19:34;;;;;;;1.92;1.77;;;14.40;99.90;;;;;;5018919;28;38676;-81
2023/07/21 03:22:00;;;;;;;2.20;1.70;;;14.40;99.90;;;;;;5026987;28;38148;-82
2023/07/21 03:24:26;;;;;;;1.63;1.50;;;14.40;99.90;;;;;;5033083;28;38241;-81
2023/07/21 03:26:52;;;;;;;1.52;1.40;;;14.40;99.90;;;;;;5031133;28;38992;-81
2023/07/21 03:29:18;;;;;;;2.42;1.80;;;14.50;99.90;;;;;;5021247;28;38449;-81
2023/07/21 03:31:45;;;;;;;2.17;1.80;;;14.50;99.90;;;;;;5025049;28;37015;-81
2023/07/21 03:34:11;;;;;;;3.47;1.88;;;14.50;99.90;;;;;;5018384;28;36426;-82
2023/07/21 03:36:37;;;;;;;2.53;1.65;;;14.50;99.90;;;;;;5042071;28;38399;-81
2023/07/21 03:39:03;;;;;;;2.28;1.92;;;14.50;99.90;;;;;;5020348;28;37447;-81
2023/07/21 03:41:30;;;;;;;2.55;2.00;;;14.60;99.90;;;;;;5039455;28;38240;-82
2023/07/21 03:43:56;;;;;;;3.03;1.85;;;14.60;99.90;;;;;;5031364;28;38230;-81
2023/07/21 03:46:22;;;;;;;2.38;2.00;;;14.60;99.90;;;;;;5023234;28;38038;-81
2023/07/21 03:48:50;;;;;;;2.95;1.88;;;14.60;99.90;;;;;;5025731;28;37299;-82
2023/07/21 03:51:16;;;;;;;2.05;1.85;;;14.60;99.90;;;;;;5014556;28;39029;-82
2023/07/21 03:53:42;;;;;;;3.25;2.15;;;14.60;99.90;;;;;;5045682;28;36095;-81
2023/07/21 03:56:08;;;;;;;2.30;2.05;;;14.70;99.90;;;;;;5021021;28;37480;-81
2023/07/21 03:58:34;;;;;;;3.88;1.77;;;14.70;99.90;;;;;;5043223;28;37364;-82
2023/07/21 04:01:00;;;;;;;1.75;1.65;;;14.70;99.90;;;;;;5020164;28;37922;-81
2023/07/21 04:03:27;;;;;;;2.13;1.92;;;14.70;99.90;;;;;;5027781;28;37204;-82
2023/07/21 04:05:53;;;;;;;2.90;1.85;;;14.70;99.90;;;;;;5028695;28;41688;-82
2023/07/21 04:08:20;;;;;;;2.33;1.77;;;14.70;99.90;;;;;;5019160;28;39777;-81
2023/07/21 04:10:46;;;;;;;2.08;1.58;;;14.70;99.90;;;;;;5019475;28;36839;-81
2023/07/21 04:13:12;;;;;;;1.90;1.65;;;14.70;99.90;;;;;;5011708;28;38834;-82
2023/07/21 04:15:38;;;;;;;2.00;1.90;;;14.70;99.90;;;;;;5031626;28;38711;-82
2023/07/21 04:18:05;;;;;;;2.28;1.80;;;14.70;99.90;;;;;;5030080;28;39179;-82
2023/07/21 04:20:31;;;;;;;2.05;1.85;;;14.70;99.90;;;;;;5046231;28;36932;-82
2023/07/21 04:22:57;;;;;;;2.65;1.98;;;14.70;99.90;;;;;;5013324;28;36360;-81
2023/07/21 04:25:24;;;;;;;2.03;1.73;;;14.70;99.90;;;;;;5027815;28;38828;-82
2023/07/21 04:27:52;;;;;;;2.08;1.90;;;14.80;99.90;;;;;;5023460;28;37488;-82
2023/07/21 04:30:18;;;;;;;1.85;1.75;;;14.80;99.90;;;;;;5030592;28;38016;-82
2023/07/21 04:32:44;;;;;;;2.65;2.08;;;14.90;99.90;;;;;;5019684;28;36058;-82
2023/07/21 04:35:10;;;;;;;1.70;1.60;;;14.90;99.90;;;;;;5033199;28;39334;-80
2023/07/21 04:37:37;;;;;;;3.40;2.30;;;14.90;99.90;;;;;;5017350;28;39056;-81
2023/07/21 04:40:06;;;;;;;2.10;1.83;;;15.00;99.90;;;;;;5019133;28;37797;-80
2023/07/21 04:42:33;;;;;;;2.90;1.80;;;15.00;99.90;;;;;;5037203;28;48583;-81
2023/07/21 04:44:59;;;;;;;2.95;1.60;;;15.00;99.90;;;;;;5032296;28;37663;-81
2023/07/21 04:47:26;;;;;;;3.88;2.00;;;15.10;99.90;;;;;;5025483;28;37032;-83
2023/07/21 04:49:53;;;;;;;4.45;1.92;;;15.10;99.90;;;;;;5032883;28;38174;-83
2023/07/21 04:52:19;;;;;;;2.13;1.92;;;15.10;99.90;;;;;;5030309;28;36599;-81
2023/07/21 04:54:46;;;;;;;1.70;1.60;;;15.10;99.90;;;;;;5032649;28;37606;-81
2023/07/21 04:57:12;;;;;;;2.17;1.90;;;15.10;99.90;;;;;;5028128;28;37436;-82
2023/07/21 04:59:38;;;;;;;2.03;1.83;;;15.10;99.90;;;;;;5051675;28;37217;-82
2023/07/21 05:02:04;;;;;;;2.60;2.40;;;15.10;99.90;;;;;;5029924;28;36008;-82
2023/07/21 05:04:30;;;;;;;2.40;2.05;;;15.10;99.90;;;;;;5033480;28;39787;-82
2023/07/21 05:06:56;;;;;;;2.42;1.90;;;15.10;99.90;;;;;;5033741;28;37446;-82
2023/07/21 05:09:22;;;;;;;2.00;1.75;;;15.20;99.90;;;;;;5038141;28;38198;-82
2023/07/21 05:11:49;;;;;;;1.83;1.73;;;15.30;99.90;;;;;;5037814;28;37128;-82
2023/07/21 05:14:17;;;;;;;1.60;1.50;;;15.40;99.90;;;;;;5043280;28;38051;-82
2023/07/21 05:16:44;;;;;;;2.28;2.08;;;15.40;99.90;;;;;;5043834;28;37741;-82
2023/07/21 05:19:10;;;;;;;3.88;2.38;;;15.50;99.90;;;;;;5033946;28;38298;-82
2023/07/21 05:21:36;;;;;;;2.20;2.00;;;15.60;99.90;;;;;;5033296;28;37281;-82
2023/07/21 05:24:03;;;;;;;2.50;2.28;;;15.70;99.90;;;;;;5035920;28;38652;-81
2023/07/21 05:26:30;;;;;;;2.95;2.55;;;15.80;99.90;;;;;;5035959;28;38698;-82
2023/07/21 05:28:57;;;;;;;6.97;2.47;;;15.80;99.90;;;;;;5027905;28;37026;-82
2023/07/21 05:31:23;;;;;;;3.38;2.85;;;15.90;99.90;;;;;;5034374;28;37633;-82
2023/07/21 05:33:50;;;;;;;4.15;2.72;;;16.00;99.90;;;;;;5034331;28;39103;-82
2023/07/21 05:36:17;;;;;;;3.47;2.70;;;16.00;99.90;;;;;;5039113;28;38349;-82
2023/07/21 05:38:43;;;;;;;3.13;2.78;;;16.10;99.90;;;;;;5033832;28;37395;-82
2023/07/21 05:41:09;;;;;;;4.60;2.95;;;16.20;99.90;;;;;;5027438;28;37315;-82
2023/07/21 05:43:36;;;;;;;2.35;2.08;;;16.20;99.90;;;;;;5052917;28;37823;-82
2023/07/21 05:46:03;;;;;;;4.25;2.83;;;16.30;99.90;;;;;;5031473;28;39994;-82
2023/07/21 05:48:29;;;;;;;4.47;3.17;;;16.30;99.90;;;;;;5026980;28;37287;-82
2023/07/21 05:50:55;;;;;;;4.40;3.63;;;16.30;99.90;;;;;;5053239;28;36248;-83
2023/07/21 05:53:21;;;;;;;6.20;4.20;;;16.20;99.90;;;;;;5042946;28;38021;-82
2023/07/21 05:55:48;;;;;;;3.80;3.33;;;16.20;99.90;;;;;;5052731;28;38949;-83
2023/07/21 05:58:14;;;;;;;3.20;2.90;;;16.30;99.90;;;;;;5024437;28;37902;-83
2023/07/21 06:00:40;;;;;;;6.00;3.70;;;16.40;99.90;;;;;;5036373;28;37086;-82
2023/07/21 06:03:07;;;;;;;4.50;3.60;;;16.40;99.90;;;;;;5043225;28;37843;-82
2023/07/21 06:05:36;;;;;;;6.70;3.67;;;16.30;99.90;;;;;;5048598;28;37639;-82
2023/07/21 06:08:04;;;;;;;4.35;3.80;;;16.30;99.90;;;;;;5035036;28;36938;-81
2023/07/21 06:10:31;;;;;;;4.00;3.40;;;16.40;99.90;;;;;;5032175;28;36219;-82
2023/07/21 06:12:57;;;;;;;6.35;3.58;;;16.50;99.90;;;;;;5053671;28;37651;-82
2023/07/21 06:15:26;;;;;;;4.70;3.88;;;16.70;99.90;;;;;;5026311;28;37393;-82
2023/07/21 06:17:53;;;;;;;7.85;3.88;;;16.80;99.90;;;;;;5028418;28;37410;-82
2023/07/21 06:20:24;;;;;;;5.43;4.05;;;16.90;99.90;;;;;;5025419;28;36321;-82
2023/07/21 06:22:52;;;;;;;4.20;3.65;;;17.00;99.90;;;;;;5030138;28;38014;-82
2023/07/21 06:25:21;;;;;;;6.25;3.55;;;17.10;99.90;;;;;;5037026;28;38226;-82
2023/07/21 06:27:48;;;;;;;5.53;4.47;;;17.20;99.90;;;;;;5051583;28;38187;-82
2023/07/21 06:30:14;;;;;;;4.35;3.95;;;17.30;99.90;;;;;;5041727;28;37464;-82
2023/07/21 06:32:41;;;;;;;4.55;3.72;;;17.40;99.90;;;;;;5037042;28;38935;-81
2023/07/21 06:35:10;;;;;;;4.85;3.30;;;17.60;99.90;;;;;;5031829;28;38625;-81
2023/07/21 06:37:40;;;;;;;7.07;3.33;;;17.70;99.90;;;;;;5026655;28;37975;-82
2023/07/21 06:40:09;;;;;;;4.57;3.30;;;17.60;99.90;;;;;;5025778;28;36324;-82
2023/07/21 06:42:35;;;;;;;3.72;2.65;;;17.50;98.90;;;;;;5037165;28;38716;-82
2023/07/21 06:45:02;;;;;;;3.17;2.35;;;17.40;99.90;;;;;;5039145;28;38959;-81
2023/07/21 06:47:28;;;;;;;3.65;2.45;;;17.40;99.90;;;;;;5018448;28;38425;-83
2023/07/21 06:49:54;;;;;;;5.30;2.60;;;17.40;99.90;;;;;;5027105;28;37585;-82
2023/07/21 06:52:20;;;;;;;4.68;3.92;;;17.50;99.90;;;;;;5024547;28;39122;-81
2023/07/21 06:54:46;;;;;;;3.70;2.90;;;17.40;99.90;;;;;;5026615;28;38737;-81
2023/07/21 06:57:12;;;;;;;3.83;2.60;;;17.40;99.90;;;;;;5035105;28;37062;-82
2023/07/21 06:59:38;;;;;;;3.53;2.55;;;17.50;99.90;;;;;;5044279;28;36376;-82
2023/07/21 07:02:05;;;;;;;5.25;2.50;;;17.60;99.90;;;;;;5028324;28;37674;-82
2023/07/21 07:04:33;;;;;;;2.70;2.42;;;17.70;99.90;;;;;;5048356;28;38762;-82
2023/07/21 07:06:59;;;;;;;5.70;3.30;;;17.70;98.80;;;;;;5033019;28;37949;-82
2023/07/21 07:09:25;;;;;;;3.13;2.63;;;17.80;98.50;;;;;;5045094;28;36076;-82
2023/07/21 07:11:52;;;;;;;2.85;2.65;;;17.90;99.90;;;;;;5036416;28;39002;-82
2023/07/21 07:14:18;;;;;;;2.75;2.55;;;18.00;99.90;;;;;;5051625;28;37518;-82
2023/07/21 07:16:44;;;;;;;3.67;2.88;;;18.20;99.90;;;;;;5047366;28;37675;-81
2023/07/21 07:19:11;;;;;;;2.65;2.45;;;18.50;98.90;;;;;;5030066;28;36249;-82
2023/07/21 07:21:37;;;;;;;2.53;2.33;;;18.70;92.00;;;;;;5030149;28;38934;-82
2023/07/21 07:24:03;;;;;;;3.55;1.90;;;18.90;92.50;;;;;;5040725;28;38074;-81
2023/07/21 07:26:29;;;;;;;3.30;2.10;;;19.00;91.80;;;;;;5030628;28;37484;-82
2023/07/21 07:28:57;;;;;;;3.25;2.30;;;19.10;89.30;;;;;;5060730;28;36817;-82
2023/07/21 07:31:23;;;;;;;3.95;2.15;;;19.00;85.40;;;;;;5052059;28;38161;-82
2023/07/21 07:33:49;;;;;;;4.03;2.47;;;19.00;93.00;;;;;;5035116;28;38106;-82
2023/07/21 07:36:15;;;;;;;3.53;2.33;;;19.20;90.50;;;;;;5044383;28;37234;-82
2023/07/21 07:38:41;;;;;;;2.85;2.40;;;19.00;85.80;;;;;;5035905;28;37200;-82
2023/07/21 07:41:09;;;;;;;2.28;1.70;;;19.10;90.30;;;;;;5039700;28;37821;-81
2023/07/21 07:43:36;;;;;;;1.83;1.73;;;19.20;89.50;;;;;;5032404;28;38347;-81
2023/07/21 07:46:07;;;;;;;3.28;1.80;;;19.10;84.20;;;;;;5026868;28;37615;-82
2023/07/21 07:48:34;;;;;;;2.72;1.92;;;19.10;89.00;;;;;;5018389;28;36144;-81
2023/07/21 07:51:05;;;;;;;2.70;2.00;;;19.10;91.20;;;;;;5051149;28;40678;-81
2023/07/21 07:53:32;;;;;;;2.08;1.65;;;19.20;84.90;;;;;;5036754;28;48058;-81
2023/07/21 07:55:58;;;;;;;2.13;1.60;;;19.60;99.90;;;;;;5039836;28;36988;-82
2023/07/21 07:58:25;;;;;;;3.78;1.65;;;19.90;99.20;;;;;;5035771;28;37135;-82
2023/07/21 08:00:55;;;;;;;6.43;2.47;;;20.40;71.90;;;;;;5029362;28;39023;-82
2023/07/21 08:03:22;;;;;;;4.90;1.95;;;20.50;53.80;;;;;;5009411;28;37469;-82
2023/07/21 08:05:49;;;;;;;1.65;1.55;;;20.70;36.10;;;;;;5028105;28;38054;-81
2023/07/21 08:08:15;;;;;;;3.33;1.63;;;20.50;53.50;;;;;;5031028;28;36291;-82
2023/07/21 08:10:42;;;;;;;3.75;1.27;;;20.20;28.60;;;;;;5023965;28;38260;-79
2023/07/21 08:13:08;;;;;;;1.40;1.30;;;20.10;49.70;;;;;;5021933;28;39371;-81
2023/07/21 08:15:34;;;;;;;1.75;0.80;;;20.50;11.80;;;;;;5017381;28;38013;-80
2023/07/21 08:18:00;;;;;;;2.50;0.95;;;20.70;1.00;;;;;;5024973;28;37908;-81
2023/07/21 08:20:26;;;;;;;2.08;1.20;;;21.20;1.00;;;;;;5026783;28;37840;-81
2023/07/21 08:22:54;;;;;;;0.70;0.70;;;21.10;1.00;;;;;;5040322;28;38305;-82
2023/07/21 08:25:20;;;;;;;0.70;0.70;;;21.20;1.00;;;;;;5044260;28;37277;-82
2023/07/21 08:27:46;;;;;;;3.17;1.42;;;21.50;1.00;;;;;;5027839;28;38082;-82
2023/07/21 08:30:15;;;;;;;2.42;0.80;;;20.90;1.00;;;;;;5013500;28;38009;-81
2023/07/21 08:32:42;;;;;;;4.88;1.27;;;21.10;1.00;;;;;;5024520;28;39522;-83
2023/07/21 08:35:09;;;;;;;2.95;1.33;;;21.10;1.00;;;;;;5019055;28;37234;-81
2023/07/21 08:37:36;;;;;;;3.45;1.23;;;21.20;1.00;;;;;;5030238;28;35986;-81
2023/07/21 08:40:03;;;;;;;1.02;0.90;;;21.90;1.00;;;;;;5044843;28;38656;-81
2023/07/21 08:42:31;;;;;;;1.17;1.02;;;22.40;1.00;;;;;;5035162;28;37260;-81
2023/07/21 08:44:58;;;;;;;1.02;0.90;;;22.40;1.00;;;;;;5028845;28;38530;-81
2023/07/21 08:47:25;;;;;;;1.17;1.08;;;22.30;1.00;;;;;;5023114;28;37208;-81
2023/07/21 08:49:51;;;;;;;1.20;1.02;;;22.10;1.00;;;;;;5046180;28;37564;-80
2023/07/21 08:52:17;;;;;;;1.05;0.98;;;22.20;1.00;;;;;;5013961;28;36838;-81
2023/07/21 08:54:44;;;;;;;1.20;1.00;;;22.00;1.00;;;;;;5047232;28;37209;-80
2023/07/21 08:57:14;;;;;;;2.58;0.93;;;21.60;1.00;;;;;;5032715;28;36159;-80
2023/07/21 08:59:41;;;;;;;2.92;0.80;;;21.40;1.00;;;;;;5032213;28;38968;-81
2023/07/21 09:02:07;;;;;;;0.95;0.73;;;20.80;1.00;;;;;;5029656;28;38252;-81
2023/07/21 09:04:34;;;;;;;2.50;0.70;;;20.50;1.00;;;;;;5021152;28;38273;-81
2023/07/21 09:07:01;;;;;;;2.50;1.23;;;20.30;7.20;;;;;;5032813;28;37034;-84
2023/07/21 09:09:31;;;;;;;3.85;1.50;;;20.00;46.00;;;;;;5038947;28;47665;-86
2023/07/21 09:12:03;;;;;;;6.97;2.40;;;19.50;83.20;;;;;;5052854;28;37203;-91
2023/07/21 09:14:39;;;;;;;6.97;2.50;;;18.80;99.90;;;;;;5042171;28;48203;-90
2023/07/21 09:17:08;;;;;;;11.93;3.10;;;18.00;99.90;;;;;;5048336;28;38553;-91
2023/07/21 09:19:41;;;;;;;4.50;2.13;;;17.30;99.90;;;;;;5052183;28;38943;-89
2023/07/21 09:22:08;;;;;;;1.75;1.52;;;16.90;99.90;;;;;;5036555;28;39353;-88
2023/07/21 09:24:35;;;;;;;3.03;2.00;;;16.60;99.90;;;;;;5030907;28;37261;-89
2023/07/21 09:27:16;;;;;;;2.72;1.75;;;16.60;99.90;;;;;;5031650;28;36912;-89
2023/07/21 09:29:43;;;;;;;2.70;1.80;;;16.70;99.90;;;;;;5032103;28;47257;-91
2023/07/21 09:32:14;;;;;;;2.88;1.95;;;16.80;99.90;;;;;;5031822;28;38658;-90
2023/07/21 09:35:01;;;;;;;4.30;2.13;;;16.90;99.90;;;;;;5044634;28;36986;-90
2023/07/21 09:37:33;;;;;;;3.25;2.10;;;17.00;99.90;;;;;;5029143;28;35841;-91
2023/07/21 09:40:01;;;;;;;2.80;1.77;;;17.10;99.90;;;;;;5036598;28;37720;-92
2023/07/21 09:42:29;;;;;;;2.90;2.25;;;17.20;99.90;;;;;;5052021;28;37182;-92
2023/07/21 09:44:56;;;;;;;2.92;2.03;;;17.30;99.90;;;;;;5029662;28;36294;-93
2023/07/21 09:47:23;;;;;;;2.55;2.30;;;17.20;99.90;;;;;;5037238;28;39702;-90
2023/07/21 09:49:58;;;;;;;2.38;1.65;;;17.30;99.90;;;;;;5030876;28;38068;-93
2023/07/21 09:52:39;;;;;;;3.63;2.15;;;17.20;99.90;;;;;;5049448;28;38831;-93
2023/07/21 09:55:10;;;;;;;2.58;2.08;;;17.20;99.90;;;;;;5044551;28;38831;-90
2023/07/21 09:57:47;;;;;;;3.17;2.00;;;17.30;99.90;;;;;;5032747;28;36298;-90
2023/07/21 10:00:17;;;;;;;3.55;2.47;;;17.30;99.90;;;;;;5035377;28;38965;-89
2023/07/21 10:02:50;;;;;;;1.95;1.70;;;17.20;99.90;;;;;;5046487;28;36961;-89
2023/07/21 10:05:16;;;;;;;1.83;1.60;;;17.30;99.90;;;;;;5059076;28;39632;-91
2023/07/21 10:07:50;;;;;;;2.70;1.73;;;17.40;99.90;;;;;;5051332;28;37943;-91
2023/07/21 10:10:18;;;;;;;3.15;1.75;;;17.60;99.90;;;;;;5042303;28;39120;-91
2023/07/21 10:12:52;;;;;;;2.45;1.55;;;17.70;99.90;;;;;;5044704;28;38295;-90
2023/07/21 10:15:19;;;;;;;1.92;1.77;;;17.70;99.90;;;;;;5030262;28;37462;-92
2023/07/21 10:17:56;;;;;;;1.80;1.70;;;17.70;99.90;;;;;;5039679;28;38143;-91
2023/07/21 10:20:40;;;;;;;2.65;1.90;;;17.60;99.90;;;;;;5017021;28;37714;-91
2023/07/21 10:23:08;;;;;;;2.65;2.00;;;17.60;99.90;;;;;;5032780;28;38771;-90
2023/07/21 10:26:12;;;;;;;1.60;1.50;;;17.60;99.90;;;;;;5032203;28;38011;-89
2023/07/21 10:28:44;;;;;;;2.00;1.75;;;17.60;99.90;;;;;;5039046;28;47873;-90
2023/07/21 10:31:23;;;;;;;2.38;1.85;;;17.60;99.90;;;;;;5038923;28;38049;-90
2023/07/21 10:34:14;;;;;;;2.20;1.63;;;17.50;99.90;;;;;;5037836;28;37753;-89
2023/07/21 10:36:52;;;;;;;2.35;1.80;;;17.40;99.90;;;;;;5037454;28;47114;-91
2023/07/21 10:39:22;;;;;;;2.13;2.00;;;17.20;99.90;;;;;;5030747;28;36064;-90
2023/07/21 10:42:05;;;;;;;3.70;2.35;;;17.20;99.90;;;;;;5023547;28;38776;-91
2023/07/21 10:44:39;;;;;;;3.22;2.75;;;17.00;99.90;;;;;;5031685;28;47550;-89
2023/07/21 10:47:17;;;;;;;3.03;2.80;;;17.00;99.90;;;;;;5045604;28;36912;-90
2023/07/21 10:49:44;;;;;;;3.78;3.00;;;17.10;99.90;;;;;;5059368;28;36535;-90
2023/07/21 10:52:11;;;;;;;2.00;1.90;;;17.10;99.90;;;;;;5053259;28;37696;-92
2023/07/21 10:54:40;;;;;;;2.33;1.83;;;16.90;99.90;;;;;;5055090;28;37585;-91
2023/07/21 10:57:56;;;;;;;2.28;1.98;;;16.80;99.90;;;;;;5047896;28;37268;-90
2023/07/21 11:00:28;;;;;;;2.38;2.17;;;16.80;99.90;;;;;;5054807;28;36346;-91
2023/07/21 11:02:56;;;;;;;4.03;2.35;;;16.70;99.90;;;;;;5058091;28;38195;-91
2023/07/21 11:05:22;;;;;;;2.58;1.98;;;16.60;99.90;;;;;;5036270;28;38185;-90
2023/07/21 11:07:49;;;;;;;2.20;2.00;;;16.50;99.90;;;;;;5059027;28;38525;-88
2023/07/21 11:10:15;;;;;;;2.83;2.63;;;16.40;99.90;;;;;;5017390;28;38253;-88
2023/07/21 11:12:50;;;;;;;4.43;3.33;;;16.40;99.90;;;;;;5035170;28;37858;-90
2023/07/21 11:15:22;;;;;;;3.97;3.63;;;16.40;99.90;;;;;;5050201;28;37575;-89
2023/07/21 11:18:00;;;;;;;4.80;4.30;;;16.40;99.90;;;;;;5036203;28;38946;-89
2023/07/21 11:20:28;;;;;;;5.28;4.78;;;16.40;99.90;;;;;;5033846;28;47395;-88
2023/07/21 11:22:59;;;;;;;7.00;6.30;;;16.50;99.90;;;;;;5046076;28;38830;-89
2023/07/21 11:25:25;;;;;;;6.82;6.22;;;16.50;99.90;;;;;;5050326;28;38415;-88
2023/07/21 11:27:53;;;;;;;9.10;6.07;;;16.60;99.90;;;;;;5050820;28;37350;-88
2023/07/21 11:30:20;;;;;;;6.72;5.13;;;16.80;99.90;;;;;;5046077;28;37173;-88
2023/07/21 11:32:47;;;;;;;7.15;5.03;;;16.80;99.90;;;;;;5033846;28;39282;-87
2023/07/21 11:35:13;;;;;;;5.63;5.10;;;16.90;99.90;;;;;;5050690;28;37384;-87
2023/07/21 11:37:42;;;;;;;5.88;4.97;;;16.90;99.90;;;;;;5033233;28;37455;-86
2023/07/21 11:40:15;;;;;;;10.05;4.93;;;17.10;99.90;;;;;;5033415;28;37038;-84
2023/07/21 11:42:46;;;;;;;8.10;5.40;;;17.60;99.90;;;;;;5048806;28;37993;-85
2023/07/21 11:45:35;;;;;;;9.88;5.50;;;18.10;99.90;;;;;;5038999;28;38358;-85
2023/07/21 11:48:13;;;;;;;9.30;6.00;;;18.10;99.90;;;;;;5031008;28;37690;-80
2023/07/21 11:50:50;;;;;;;11.43;6.22;;;18.40;99.90;;;;;;5034740;28;38178;-85
2023/07/21 11:53:17;;;;;;;10.43;6.60;;;18.50;99.90;;;;;;5062189;28;39224;-85
2023/07/21 11:55:44;;;;;;;8.38;6.57;;;18.50;99.90;;;;;;5044825;28;38938;-86
2023/07/21 11:58:11;;;;;;;8.85;5.88;;;18.80;99.90;;;;;;5039482;28;37274;-86
2023/07/21 12:00:38;;;;;;;7.13;5.45;;;19.60;99.90;;;;;;5039110;28;37002;-88
2023/07/21 12:03:05;;;;;;;11.10;6.50;;;19.90;92.70;;;;;;5028928;28;37829;-84
2023/07/21 12:05:34;;;;;;;8.27;5.93;;;19.80;94.40;;;;;;5034927;28;38468;-85
2023/07/21 12:08:01;;;;;;;8.77;6.70;;;20.00;98.80;;;;;;5032876;28;38771;-85
2023/07/21 12:10:27;;;;;;;9.98;6.13;;;20.20;94.40;;;;;;5033900;28;47206;-85
2023/07/21 12:12:54;;;;;;;8.63;5.97;;;20.50;74.90;;;;;;5033199;28;39985;-85
2023/07/21 12:15:21;;;;;;;16.00;6.82;;;20.70;86.80;;;;;;5040424;28;39392;-84
2023/07/21 12:17:50;;;;;;;8.27;5.25;;;20.60;80.00;;;;;;5042062;28;37082;-84
2023/07/21 12:20:17;;;;;;;8.45;5.93;;;19.90;20.80;;;;;;5042847;28;36325;-83
2023/07/21 12:22:43;;;;;;;7.25;6.15;;;19.40;24.80;;;;;;5038436;28;37901;-84
2023/07/21 12:25:10;;;;;;;8.00;6.22;;;19.20;45.30;;;;;;5033353;28;38077;-84
2023/07/21 12:27:37;;;;;;;8.68;6.90;;;19.20;88.50;;;;;;5031917;28;38271;-84
2023/07/21 12:30:08;;;;;;;10.88;7.18;;;19.60;93.00;;;;;;5039452;28;37165;-84
2023/07/21 12:32:34;;;;;;;8.10;6.78;;;19.80;72.30;;;;;;5034266;28;46420;-83
2023/07/21 12:35:01;;;;;;;7.65;6.00;;;19.70;75.30;;;;;;5036771;28;38036;-84
2023/07/21 12:37:28;;;;;;;9.20;6.88;;;19.70;67.70;;;;;;5034446;28;38749;-82
2023/07/21 12:39:55;;;;;;;11.88;7.70;;;20.40;78.90;;;;;;5046997;28;37378;-82
2023/07/21 12:42:21;;;;;;;11.05;6.10;;;21.00;72.60;;;;;;5034181;28;39130;-82
2023/07/21 12:44:47;;;;;;;8.40;5.28;;;21.40;1.00;;;;;;5029660;28;38845;-81
2023/07/21 12:47:13;;;;;;;6.40;5.47;;;21.40;1.00;;;;;;5031948;28;37643;-82
2023/07/21 12:49:39;;;;;;;10.60;6.38;;;21.10;1.00;;;;;;5041725;28;36893;-81
2023/07/21 12:52:06;;;;;;;8.27;6.63;;;20.70;1.00;;;;;;5039683;28;39373;-82
2023/07/21 12:54:32;;;;;;;11.48;7.07;;;20.50;1.00;;;;;;5031200;28;38248;-81
2023/07/21 12:56:59;;;;;;;8.45;6.38;;;20.40;3.60;;;;;;5028408;28;36760;-82